Time;durP1;ratioP1;P1;durP2;ratioP2;P2;SDS_P1;SDS_P2;PMS_P1;PMS_P2;Temp;Humidity;BMP_temperature;BMP_pressure;BME280_temperature;BME280_humidity;BME280_pressure;Samples;Min_cycle;Max_cycle;Signal;HPM_P1;HPM_P2
2022/07/08 00:00:29;;;;;;;9.70;2.75;;;;;;;19.97;48.62;100949.66;5003695;28;20104;-80
2022/07/08 00:02:56;;;;;;;9.75;2.67;;;;;;;19.99;49.10;100952.22;5009295;28;20137;-79
2022/07/08 00:05:22;;;;;;;6.18;2.53;;;;;;;19.99;49.32;100953.03;4992142;28;20450;-79
2022/07/08 00:07:49;;;;;;;7.38;2.80;;;;;;;20.00;48.49;100945.78;5017955;28;20172;-79
2022/07/08 00:10:16;;;;;;;5.53;2.45;;;;;;;19.97;48.34;100954.22;5020538;28;20045;-80
2022/07/08 00:12:42;;;;;;;8.55;2.40;;;;;;;19.86;47.97;100958.94;5002554;28;20049;-79
2022/07/08 00:15:10;;;;;;;9.40;2.60;;;;;;;19.90;48.26;100962.16;5026870;28;20145;-79
2022/07/08 00:17:37;;;;;;;6.13;2.22;;;;;;;19.78;47.92;100963.50;5005172;28;20041;-86
2022/07/08 00:20:04;;;;;;;7.70;2.50;;;;;;;19.64;47.79;100967.66;4984960;28;20041;-78
2022/07/08 00:22:31;;;;;;;7.05;2.92;;;;;;;19.44;48.01;100959.09;4983934;28;20388;-77
2022/07/08 00:24:58;;;;;;;6.30;2.40;;;;;;;19.25;48.31;100970.97;5025836;28;20049;-79
2022/07/08 00:27:24;;;;;;;6.25;2.28;;;;;;;19.13;48.62;100965.03;4989845;28;20045;-80
2022/07/08 00:29:51;;;;;;;5.22;2.28;;;;;;;19.04;48.44;100963.34;5004243;28;20111;-79
2022/07/08 00:32:18;;;;;;;8.65;2.67;;;;;;;18.86;48.92;100963.47;4999535;28;20396;-77
2022/07/08 00:34:49;;;;;;;9.60;2.53;;;;;;;18.82;48.47;100971.00;4996446;28;20077;-77
2022/07/08 00:37:16;;;;;;;9.57;2.40;;;;;;;18.77;48.57;100967.94;4987699;28;20045;-78
2022/07/08 00:39:43;;;;;;;5.05;2.13;;;;;;;18.78;48.90;100975.03;5011446;28;20078;-77
2022/07/08 00:42:10;;;;;;;9.73;1.90;;;;;;;18.96;48.51;100976.78;4979661;28;20061;-79
2022/07/08 00:44:38;;;;;;;7.85;4.07;;;;;;;19.00;48.35;100989.75;5026275;28;20132;-86
2022/07/08 00:47:05;;;;;;;5.32;2.00;;;;;;;19.09;48.15;100991.47;5015163;28;20045;-87
2022/07/08 00:49:31;;;;;;;8.80;2.20;;;;;;;19.23;48.04;100998.09;4993518;28;20045;-86
2022/07/08 00:51:59;;;;;;;10.40;1.92;;;;;;;19.27;47.75;100991.34;5002297;28;20054;-77
2022/07/08 00:54:26;;;;;;;4.53;2.10;;;;;;;19.27;47.75;100998.59;5003580;28;20450;-77
2022/07/08 00:56:54;;;;;;;10.13;2.42;;;;;;;19.22;47.85;100998.25;4985800;28;20051;-77
2022/07/08 00:59:21;;;;;;;11.88;2.67;;;;;;;19.12;47.83;100989.47;4993731;28;20034;-77
2022/07/08 01:01:48;;;;;;;7.10;2.30;;;;;;;18.94;47.95;100995.78;5026196;28;20053;-78
2022/07/08 01:04:15;;;;;;;5.50;1.95;;;;;;;18.75;48.14;100996.88;5009553;28;20045;-77
2022/07/08 01:06:41;;;;;;;5.90;1.77;;;;;;;18.63;48.31;100998.13;5001680;28;20038;-77
2022/07/08 01:09:09;;;;;;;11.10;2.45;;;;;;;18.48;48.64;101008.63;5002883;28;20049;-77
2022/07/08 01:11:36;;;;;;;4.75;1.90;;;;;;;18.42;48.78;101025.41;4996915;28;20041;-77
2022/07/08 01:14:04;;;;;;;7.80;2.35;;;;;;;18.43;48.91;101014.47;5027323;28;20435;-77
2022/07/08 01:16:30;;;;;;;9.18;2.17;;;;;;;18.33;48.90;101020.97;5005831;28;20875;-85
2022/07/08 01:19:26;;;;;;;7.57;2.67;;;;;;;18.42;48.80;101017.34;5008910;28;20404;-86
2022/07/08 01:21:54;;;;;;;5.55;1.88;;;;;;;18.65;48.52;101023.03;5001569;28;20116;-86
2022/07/08 01:24:21;;;;;;;9.98;2.28;;;;;;;18.52;48.51;101020.78;5003283;28;20061;-86
2022/07/08 01:26:48;;;;;;;8.00;2.03;;;;;;;18.47;48.65;101024.91;4984949;28;20444;-86
2022/07/08 01:29:14;;;;;;;11.77;2.35;;;;;;;18.50;48.68;101021.94;5011637;28;20094;-86
2022/07/08 01:31:41;;;;;;;6.57;2.05;;;;;;;18.68;48.64;101019.19;4996172;28;20044;-79
2022/07/08 01:34:08;;;;;;;6.68;2.58;;;;;;;18.76;48.49;101021.94;5003887;28;20065;-79
2022/07/08 01:36:34;;;;;;;7.38;2.80;;;;;;;18.84;48.47;101019.28;5008664;28;20057;-80
2022/07/08 01:39:01;;;;;;;7.68;1.83;;;;;;;18.93;48.39;101020.16;5009940;28;20049;-79
2022/07/08 01:41:28;;;;;;;10.02;2.50;;;;;;;18.90;48.07;101017.78;5008010;28;20047;-77
2022/07/08 01:43:56;;;;;;;7.95;1.67;;;;;;;18.90;48.47;101017.78;5016430;28;20038;-77
2022/07/08 01:46:23;;;;;;;6.25;1.75;;;;;;;18.96;48.39;101020.69;5019038;28;20497;-77
2022/07/08 01:48:50;;;;;;;7.05;1.67;;;;;;;18.97;48.92;101033.13;5009823;28;20052;-77
2022/07/08 01:51:16;;;;;;;5.90;1.98;;;;;;;18.99;49.02;101031.13;5011109;28;20060;-78
2022/07/08 01:53:43;;;;;;;4.55;1.92;;;;;;;18.98;49.04;101037.53;4995893;28;20050;-79
2022/07/08 01:56:10;;;;;;;5.40;2.17;;;;;;;18.96;49.42;101041.38;4983826;28;20049;-79
2022/07/08 01:58:36;;;;;;;5.50;1.92;;;;;;;18.92;49.19;101042.69;4992504;28;20497;-80
2022/07/08 02:01:04;;;;;;;5.55;2.30;;;;;;;18.89;49.23;101049.25;5017970;28;20041;-79
2022/07/08 02:03:33;;;;;;;6.25;2.53;;;;;;;18.85;49.49;101050.56;5031578;28;20597;-85
2022/07/08 02:06:00;;;;;;;8.80;2.15;;;;;;;18.82;49.18;101038.28;5013366;28;20454;-85
2022/07/08 02:08:27;;;;;;;5.93;1.95;;;;;;;18.80;49.04;101043.00;5026115;28;20073;-82
2022/07/08 02:13:39;;;;;;;7.45;2.17;;;;;;;18.74;49.38;101043.59;4990897;28;20507;-85
2022/07/08 02:16:06;;;;;;;7.30;1.80;;;;;;;18.69;49.20;101045.91;4998595;28;20423;-86
2022/07/08 02:18:32;;;;;;;5.05;1.73;;;;;;;18.65;49.51;101044.56;5030118;28;20504;-85
2022/07/08 02:21:00;;;;;;;6.95;2.10;;;;;;;18.61;49.56;101048.56;5001427;28;20087;-84
2022/07/08 02:23:27;;;;;;;7.35;1.80;;;;;;;18.58;49.59;101054.25;4997094;28;20438;-85
2022/07/08 02:25:53;;;;;;;8.75;2.40;;;;;;;18.61;49.39;101052.09;5008399;28;20041;-85
2022/07/08 02:28:20;;;;;;;6.85;2.20;;;;;;;18.59;49.54;101056.78;5021334;28;20050;-78
2022/07/08 02:30:47;;;;;;;7.80;1.90;;;;;;;18.53;49.67;101054.72;5009592;28;20042;-83
2022/07/08 02:33:13;;;;;;;10.55;2.72;;;;;;;18.43;49.98;101056.66;5002212;28;20513;-84
2022/07/08 02:35:40;;;;;;;5.38;1.63;;;;;;;18.37;50.09;101058.16;5005320;28;20041;-80
2022/07/08 02:38:07;;;;;;;6.82;1.95;;;;;;;18.33;50.25;101064.00;4995612;28;20053;-79
2022/07/08 02:40:33;;;;;;;6.50;1.98;;;;;;;18.31;50.31;101071.38;5006501;28;20455;-79
2022/07/08 02:43:00;;;;;;;8.50;2.03;;;;;;;18.24;50.24;101071.13;4995587;28;20045;-79
2022/07/08 02:45:27;;;;;;;4.50;1.80;;;;;;;18.23;50.13;101070.28;5006606;28;20521;-80
2022/07/08 02:47:54;;;;;;;5.20;1.70;;;;;;;18.21;50.10;101074.13;5023218;28;20040;-80
2022/07/08 02:50:21;;;;;;;7.53;1.90;;;;;;;18.17;50.37;101072.78;5025911;28;20041;-80
2022/07/08 02:52:47;;;;;;;8.63;1.80;;;;;;;18.14;50.55;101070.38;5015055;28;20485;-80
2022/07/08 02:55:14;;;;;;;6.95;2.38;;;;;;;18.11;50.54;101076.91;4982718;28;20049;-80
2022/07/08 02:57:41;;;;;;;4.88;1.90;;;;;;;18.06;50.72;101076.53;4986920;28;20049;-80
2022/07/08 03:00:08;;;;;;;6.88;1.70;;;;;;;18.00;50.34;101082.53;5009947;28;20107;-77
2022/07/08 03:02:35;;;;;;;10.82;2.13;;;;;;;17.95;50.68;101088.34;4972477;28;20049;-77
2022/07/08 03:05:02;;;;;;;5.07;2.20;;;;;;;17.92;50.52;101087.81;5022665;28;20052;-80
2022/07/08 03:07:28;;;;;;;5.65;1.90;;;;;;;17.90;50.96;101087.97;4998980;28;20038;-77
2022/07/08 03:09:55;;;;;;;5.57;2.13;;;;;;;17.88;51.63;101089.13;5038444;28;20163;-83
2022/07/08 03:12:22;;;;;;;4.45;2.05;;;;;;;17.86;51.37;101088.41;5011598;28;20049;-84
2022/07/08 03:14:48;;;;;;;5.40;2.13;;;;;;;17.84;51.54;101093.13;5022181;28;20041;-80
2022/07/08 03:17:15;;;;;;;7.07;1.95;;;;;;;17.80;51.99;101089.88;5015296;28;20082;-80
2022/07/08 03:19:42;;;;;;;11.38;2.30;;;;;;;17.74;52.21;101095.84;4954406;28;20049;-80
2022/07/08 03:22:08;;;;;;;3.67;1.92;;;;;;;17.69;52.42;101095.44;4990214;28;20053;-80
2022/07/08 03:24:35;;;;;;;6.07;2.58;;;;;;;17.65;52.48;101102.09;5010538;28;20116;-80
2022/07/08 03:27:02;;;;;;;7.97;2.20;;;;;;;17.61;52.89;101104.25;5009287;28;20061;-81
2022/07/08 03:29:29;;;;;;;5.03;1.77;;;;;;;17.58;53.04;101110.78;5020732;28;20046;-81
2022/07/08 03:31:57;;;;;;;4.95;2.20;;;;;;;17.58;53.19;101107.25;4993411;28;20041;-81
2022/07/08 03:34:23;;;;;;;9.32;2.08;;;;;;;17.56;53.57;101109.25;4999164;28;20076;-82
2022/07/08 03:36:50;;;;;;;9.30;2.30;;;;;;;17.55;53.38;101110.22;4985978;28;20046;-82
2022/07/08 03:39:17;;;;;;;8.25;3.05;;;;;;;17.54;52.94;101109.38;5003679;28;20064;-81
2022/07/08 03:41:44;;;;;;;4.45;1.75;;;;;;;17.50;53.25;101108.00;5009163;28;20106;-81
2022/07/08 03:44:10;;;;;;;4.18;1.88;;;;;;;17.51;53.37;101114.22;5007513;28;20090;-81
2022/07/08 03:46:37;;;;;;;7.32;2.17;;;;;;;17.56;53.22;101119.97;5025005;28;20042;-81
2022/07/08 03:49:05;;;;;;;5.60;2.13;;;;;;;17.54;53.46;101117.44;5012509;28;20100;-80
2022/07/08 03:51:31;;;;;;;3.88;1.92;;;;;;;17.55;53.48;101129.88;4983876;28;20038;-80
2022/07/08 03:53:58;;;;;;;4.07;1.88;;;;;;;17.57;53.55;101135.09;4996191;28;20053;-80
2022/07/08 03:56:25;;;;;;;7.63;1.92;;;;;;;17.56;53.45;101134.25;5010442;28;20053;-80
2022/07/08 03:58:51;;;;;;;3.20;1.60;;;;;;;17.57;53.19;101135.94;4992223;28;20547;-80
2022/07/08 04:01:18;;;;;;;8.48;2.83;;;;;;;17.63;53.30;101133.63;5010377;28;20130;-80
2022/07/08 04:03:45;;;;;;;4.72;2.38;;;;;;;17.63;53.47;101129.13;4981052;28;20049;-80
2022/07/08 04:06:12;;;;;;;6.88;2.00;;;;;;;17.65;53.50;101131.66;4995110;28;22655;-81
2022/07/08 04:08:38;;;;;;;7.78;2.25;;;;;;;17.65;53.34;101137.88;5012881;28;20045;-80
2022/07/08 04:11:05;;;;;;;11.32;2.33;;;;;;;17.66;53.19;101138.72;4970688;28;20049;-80
2022/07/08 04:13:32;;;;;;;7.55;2.45;;;;;;;17.64;53.24;101144.25;4998743;28;20037;-80
2022/07/08 04:16:01;;;;;;;7.90;2.28;;;;;;;17.63;53.36;101141.69;4976556;28;20485;-80
2022/07/08 04:18:28;;;;;;;4.72;2.05;;;;;;;17.65;53.42;101145.09;5009846;28;20046;-80
2022/07/08 04:20:55;;;;;;;8.88;2.88;;;;;;;17.66;53.58;101154.84;4981614;28;20068;-80
2022/07/08 04:23:22;;;;;;;8.10;2.03;;;;;;;17.63;53.51;101157.81;4974403;28;20064;-81
2022/07/08 04:25:57;;;;;;;4.63;2.05;;;;;;;17.60;53.47;101158.13;5015634;28;20041;-80
2022/07/08 04:28:23;;;;;;;6.07;2.10;;;;;;;17.61;53.54;101157.16;4988122;28;20042;-81
2022/07/08 04:30:50;;;;;;;3.40;2.03;;;;;;;17.62;53.59;101161.50;4994962;28;20092;-81
2022/07/08 04:33:17;;;;;;;5.88;2.10;;;;;;;17.60;53.96;101150.06;4983278;28;20128;-81
2022/07/08 04:35:43;;;;;;;5.57;2.25;;;;;;;17.60;54.11;101145.53;4988416;28;20046;-80
2022/07/08 04:38:10;;;;;;;4.40;1.92;;;;;;;17.68;54.08;101148.34;5017870;28;20045;-80
2022/07/08 04:40:37;;;;;;;9.63;2.22;;;;;;;17.68;54.13;101152.84;5014715;28;20401;-80
2022/07/08 04:43:04;;;;;;;8.10;2.70;;;;;;;17.72;54.23;101152.41;4995687;28;20045;-80
2022/07/08 04:45:30;;;;;;;7.22;2.30;;;;;;;17.78;54.50;101146.44;4983367;28;20041;-80
2022/07/08 04:47:57;;;;;;;6.47;2.05;;;;;;;17.79;54.52;101148.16;4989191;28;20099;-80
2022/07/08 04:50:24;;;;;;;5.57;1.88;;;;;;;17.79;54.54;101149.97;4995048;28;20045;-80
2022/07/08 04:52:50;;;;;;;5.15;2.03;;;;;;;17.77;54.58;101146.56;4998054;28;20045;-81
2022/07/08 04:55:29;;;;;;;10.07;2.45;;;;;;;17.79;54.74;101153.53;5002316;28;20041;-81
2022/07/08 04:58:02;;;;;;;4.85;2.17;;;;;;;17.79;55.31;101155.34;4977925;28;20040;-81
2022/07/08 05:00:29;;;;;;;9.57;2.13;;;;;;;17.86;54.80;101163.66;4988198;28;20038;-80
2022/07/08 05:02:56;;;;;;;6.90;2.20;;;;;;;17.93;54.76;101167.44;4990939;28;20049;-80
2022/07/08 05:05:24;;;;;;;6.55;2.38;;;;;;;17.95;54.54;101170.81;5000665;28;20181;-81
2022/07/08 05:07:51;;;;;;;7.03;2.10;;;;;;;17.95;54.61;101168.97;4990965;28;22331;-81
2022/07/08 05:10:21;;;;;;;6.10;2.30;;;;;;;18.01;53.99;101170.19;4994115;28;20151;-80
2022/07/08 05:12:49;;;;;;;7.80;2.70;;;;;;;18.02;53.67;101174.59;4983710;28;20042;-81
2022/07/08 05:15:16;;;;;;;7.22;2.72;;;;;;;18.02;53.79;101173.75;5007143;28;20054;-81
2022/07/08 05:17:43;;;;;;;10.48;3.38;;;;;;;18.07;53.47;101174.16;4965244;28;20045;-80
2022/07/08 05:20:10;;;;;;;7.80;3.50;;;;;;;18.09;53.54;101174.81;4966294;28;20042;-81
2022/07/08 05:22:37;;;;;;;9.10;3.25;;;;;;;18.12;53.75;101175.38;5006993;28;20051;-80
2022/07/08 05:25:06;;;;;;;8.25;3.67;;;;;;;18.12;53.93;101175.38;5002706;28;20052;-80
2022/07/08 05:27:33;;;;;;;13.38;3.78;;;;;;;18.16;53.59;101170.53;4994967;28;20098;-80
2022/07/08 05:30:00;;;;;;;8.07;3.20;;;;;;;18.17;53.10;101177.63;5018753;28;20489;-81
2022/07/08 05:32:27;;;;;;;8.27;3.05;;;;;;;18.18;53.28;101173.91;5046016;28;20050;-81
2022/07/08 05:35:00;;;;;;;6.90;2.88;;;;;;;18.22;53.32;101183.38;5027088;28;20049;-81
2022/07/08 05:37:27;;;;;;;12.93;3.63;;;;;;;18.28;53.37;101190.00;5019401;28;20042;-81
2022/07/08 05:39:55;;;;;;;8.60;3.17;;;;;;;18.29;53.17;101183.59;5036980;28;20045;-81
2022/07/08 05:42:22;;;;;;;6.57;2.53;;;;;;;18.30;53.10;101191.53;5021039;28;20033;-80
2022/07/08 05:44:48;;;;;;;10.48;3.28;;;;;;;18.33;53.04;101190.38;5011179;28;20041;-80
2022/07/08 05:47:15;;;;;;;5.15;2.28;;;;;;;18.37;52.75;101191.78;5015854;28;20568;-80
2022/07/08 05:49:45;;;;;;;6.47;2.63;;;;;;;18.38;52.93;101191.59;5022214;28;20046;-81
2022/07/08 05:52:11;;;;;;;9.50;2.10;;;;;;;18.44;52.76;101193.69;5047940;28;20041;-81
2022/07/08 05:54:38;;;;;;;8.38;2.53;;;;;;;18.48;52.94;101196.06;5025272;28;20410;-81
2022/07/08 05:57:09;;;;;;;9.35;2.80;;;;;;;18.50;52.70;101194.91;5021923;28;20041;-82
2022/07/08 05:59:36;;;;;;;6.85;2.40;;;;;;;18.54;52.31;101195.44;4996634;28;20037;-81
2022/07/08 06:02:03;;;;;;;7.40;2.15;;;;;;;18.59;52.44;101199.34;5023856;28;20080;-82
2022/07/08 06:04:31;;;;;;;8.88;2.40;;;;;;;18.62;52.22;101200.88;5020950;28;20095;-81
2022/07/08 06:06:58;;;;;;;10.27;2.65;;;;;;;18.60;52.44;101208.28;4990109;28;20567;-81
2022/07/08 06:09:25;;;;;;;6.70;2.22;;;;;;;18.47;51.50;101210.50;5019242;28;20084;-81
2022/07/08 06:11:52;;;;;;;7.05;2.08;;;;;;;18.49;52.00;101205.81;5038152;28;20064;-82
2022/07/08 06:14:19;;;;;;;7.68;2.00;;;;;;;18.60;51.49;101211.81;5018075;28;20065;-81
2022/07/08 06:16:49;;;;;;;7.72;1.63;;;;;;;18.52;51.19;101213.56;5041126;28;20627;-81
2022/07/08 06:19:16;;;;;;;9.25;2.00;;;;;;;18.55;50.76;101219.50;5028603;28;20060;-81
2022/07/08 06:21:43;;;;;;;5.82;1.63;;;;;;;18.60;50.86;101217.19;5034195;28;20051;-81
2022/07/08 06:24:10;;;;;;;7.25;2.08;;;;;;;18.68;50.55;101215.59;5028460;28;20052;-81
2022/07/08 06:26:38;;;;;;;5.53;1.48;;;;;;;18.64;50.29;101220.41;5022077;28;20038;-81
2022/07/08 06:29:05;;;;;;;8.80;1.70;;;;;;;18.68;49.18;101211.03;5056508;28;20052;-81
2022/07/08 06:31:33;;;;;;;6.75;1.65;;;;;;;18.60;48.77;101206.44;5024205;28;20049;-81
2022/07/08 06:34:00;;;;;;;6.57;1.73;;;;;;;18.65;47.00;101214.06;4989617;28;20046;-82
2022/07/08 06:36:26;;;;;;;4.10;1.25;;;;;;;18.68;47.28;101221.81;5013178;28;20119;-81
2022/07/08 06:38:53;;;;;;;9.20;1.52;;;;;;;18.80;47.42;101217.91;5009463;28;20457;-81
2022/07/08 06:41:25;;;;;;;5.00;1.30;;;;;;;18.89;48.00;101208.03;5017773;28;20049;-81
2022/07/08 06:43:52;;;;;;;5.18;1.63;;;;;;;18.92;47.89;101214.97;5012960;28;20514;-81
2022/07/08 06:46:19;;;;;;;6.50;1.42;;;;;;;18.82;47.48;101210.50;5027252;28;20079;-81
2022/07/08 06:48:47;;;;;;;3.70;1.30;;;;;;;18.64;46.67;101220.41;5002881;28;20046;-81
2022/07/08 06:51:13;;;;;;;6.53;1.67;;;;;;;18.61;47.19;101213.50;5008045;28;20054;-81
2022/07/08 06:56:26;;;;;;;3.65;1.10;;;;;;;18.70;46.50;101225.19;4972935;28;20132;-81
2022/07/08 06:58:53;;;;;;;2.75;0.93;;;;;;;18.63;45.82;101224.97;4997079;28;20046;-81
2022/07/08 07:01:19;;;;;;;4.65;1.27;;;;;;;18.67;45.62;101220.09;5005459;28;20048;-82
2022/07/08 07:03:46;;;;;;;5.20;1.10;;;;;;;18.81;45.84;101227.66;4984111;28;20111;-82
2022/07/08 07:06:13;;;;;;;5.20;1.42;;;;;;;18.82;46.09;101237.41;5017607;28;20049;-81
2022/07/08 07:08:40;;;;;;;8.07;1.55;;;;;;;18.77;46.30;101236.19;5018581;28;20132;-81
2022/07/08 07:11:06;;;;;;;8.23;1.45;;;;;;;18.79;46.37;101236.91;4999069;28;20687;-81
2022/07/08 07:13:33;;;;;;;5.70;1.15;;;;;;;18.80;46.39;101246.66;5004537;28;20111;-81
2022/07/08 07:16:00;;;;;;;5.07;1.30;;;;;;;18.71;45.64;101253.78;5012369;28;20042;-82
2022/07/08 07:18:31;;;;;;;5.22;1.50;;;;;;;18.62;45.04;101247.50;5003690;28;20057;-81
2022/07/08 07:20:59;;;;;;;2.97;1.40;;;;;;;18.60;46.08;101243.25;4981684;28;20105;-81
2022/07/08 07:23:26;;;;;;;2.72;1.10;;;;;;;18.65;45.36;101240.97;5005838;28;20549;-82
2022/07/08 07:25:55;;;;;;;5.57;1.63;;;;;;;18.60;44.83;101254.03;4990912;28;20420;-81
2022/07/08 07:28:22;;;;;;;5.47;1.83;;;;;;;18.51;45.76;101250.38;5002748;28;20452;-81
2022/07/08 07:30:48;;;;;;;5.82;1.73;;;;;;;18.33;46.16;101253.06;5026177;28;20037;-82
2022/07/08 07:33:15;;;;;;;3.47;1.13;;;;;;;18.39;46.40;101246.22;5001634;28;20052;-80
2022/07/08 07:35:42;;;;;;;3.67;1.40;;;;;;;18.35;46.28;101247.53;4987029;28;20521;-80
2022/07/08 07:38:09;;;;;;;5.45;1.27;;;;;;;18.39;46.21;101248.91;4977886;28;20046;-74
2022/07/08 07:40:37;;;;;;;4.60;1.23;;;;;;;18.32;45.73;101246.00;5014412;28;20053;-79
2022/07/08 07:43:04;;;;;;;10.32;1.63;;;;;;;18.41;45.41;101245.06;4989615;28;20049;-79
2022/07/08 07:45:31;;;;;;;6.13;1.40;;;;;;;18.47;45.97;101253.53;4980166;28;20033;-78
2022/07/08 07:47:57;;;;;;;3.72;1.48;;;;;;;18.57;45.89;101251.63;4989993;28;20056;-78
2022/07/08 07:50:26;;;;;;;4.43;0.98;;;;;;;18.62;45.47;101252.88;4994744;28;20041;-78
2022/07/08 07:52:53;;;;;;;5.35;1.30;;;;;;;18.68;45.54;101253.25;4993575;28;20045;-79
2022/07/08 07:55:20;;;;;;;8.45;1.60;;;;;;;18.74;45.09;101248.09;5010121;28;20388;-82
2022/07/08 07:57:48;;;;;;;5.00;1.20;;;;;;;18.68;45.18;101251.41;5002387;28;20049;-82
2022/07/08 08:00:16;;;;;;;3.25;1.20;;;;;;;18.57;45.07;101252.50;5022357;28;20515;-80
2022/07/08 08:02:43;;;;;;;7.35;1.40;;;;;;;18.63;45.66;101251.88;4968997;28;20485;-80
2022/07/08 08:05:10;;;;;;;5.15;1.33;;;;;;;18.76;45.60;101250.66;5001572;28;20045;-80
2022/07/08 08:07:38;;;;;;;6.32;1.50;;;;;;;18.78;45.72;101254.06;4998105;28;20040;-80
2022/07/08 08:10:05;;;;;;;3.45;1.60;;;;;;;18.81;45.67;101259.97;4982239;28;20053;-81
2022/07/08 08:12:32;;;;;;;6.28;1.67;;;;;;;18.93;45.62;101259.72;5006691;28;20045;-78
2022/07/08 08:14:59;;;;;;;6.47;1.55;;;;;;;18.95;45.34;101257.72;4973020;28;20156;-79
2022/07/08 08:17:25;;;;;;;3.60;1.10;;;;;;;18.86;45.12;101256.81;5008435;28;20049;-81
2022/07/08 08:19:52;;;;;;;5.22;1.52;;;;;;;18.91;44.94;101261.72;4992661;28;20096;-83
2022/07/08 08:22:19;;;;;;;5.45;1.33;;;;;;;18.79;44.62;101258.44;5006593;28;20041;-82
2022/07/08 08:24:46;;;;;;;3.55;1.15;;;;;;;18.84;44.46;101258.81;5009702;28;20106;-81
2022/07/08 08:27:12;;;;;;;5.30;1.45;;;;;;;18.58;44.88;101264.94;5020154;28;20152;-81
2022/07/08 08:29:40;;;;;;;3.67;1.25;;;;;;;18.56;44.68;101258.00;5005647;28;20045;-80
2022/07/08 08:32:07;;;;;;;6.03;1.20;;;;;;;18.71;44.78;101255.63;5024268;28;20708;-81
2022/07/08 08:34:34;;;;;;;6.85;1.50;;;;;;;18.78;44.40;101260.28;5006024;28;20044;-81
2022/07/08 08:37:00;;;;;;;4.35;1.50;;;;;;;18.85;44.84;101265.88;5020139;28;20056;-81
2022/07/08 08:39:27;;;;;;;4.70;1.40;;;;;;;18.99;44.49;101251.03;4994544;28;20070;-81
2022/07/08 08:41:54;;;;;;;7.10;1.45;;;;;;;18.95;44.59;101260.41;4994799;28;20041;-81
2022/07/08 08:44:21;;;;;;;8.35;1.88;;;;;;;18.86;44.68;101260.34;5023323;28;20084;-82
2022/07/08 08:46:48;;;;;;;4.47;1.60;;;;;;;18.89;44.56;101261.88;5025350;28;20405;-82
2022/07/08 08:49:16;;;;;;;3.13;1.20;;;;;;;18.83;44.70;101255.28;5001299;28;20102;-82
2022/07/08 08:51:44;;;;;;;5.32;1.60;;;;;;;18.91;44.29;101251.81;5001994;28;20038;-80
2022/07/08 08:54:12;;;;;;;3.67;1.50;;;;;;;18.82;44.62;101253.56;5021627;28;20029;-82
2022/07/08 08:56:39;;;;;;;5.70;1.20;;;;;;;18.86;44.61;101252.25;5009218;28;20080;-82
2022/07/08 08:59:06;;;;;;;6.03;1.75;;;;;;;18.86;44.22;101256.81;5028750;28;20697;-81
2022/07/08 09:01:33;;;;;;;4.03;1.20;;;;;;;18.91;44.91;101250.97;5017120;28;20053;-80
2022/07/08 09:04:10;;;;;;;4.72;1.38;;;;;;;18.90;44.80;101254.63;5003388;28;20149;-79
2022/07/08 09:06:38;;;;;;;7.13;1.67;;;;;;;18.89;44.22;101269.94;5049404;28;20037;-79
2022/07/08 09:09:05;;;;;;;6.35;1.50;;;;;;;18.74;44.39;101258.00;5026254;28;20045;-79
2022/07/08 09:11:35;;;;;;;4.57;1.27;;;;;;;18.73;44.23;101253.63;5018811;28;20049;-79
2022/07/08 09:14:20;;;;;;;8.25;2.08;;;;;;;18.78;44.78;101264.81;5022614;28;20049;-79
2022/07/08 09:17:09;;;;;;;6.05;1.10;;;;;;;18.82;44.19;101274.25;5005692;28;20128;-80
2022/07/08 09:19:37;;;;;;;6.35;1.52;;;;;;;18.84;43.80;101272.25;4995847;28;20417;-80
2022/07/08 09:22:05;;;;;;;3.97;1.25;;;;;;;18.90;44.24;101265.41;5006994;28;20049;-78
2022/07/08 09:24:32;;;;;;;4.88;1.40;;;;;;;19.01;43.88;101266.03;4989937;28;20038;-83
2022/07/08 09:27:17;;;;;;;6.57;1.90;;;;;;;18.96;43.31;101259.41;5007239;28;20061;-82
2022/07/08 09:30:00;;;;;;;3.20;1.42;;;;;;;18.89;42.65;101266.41;5015143;28;20443;-79
2022/07/08 09:32:27;;;;;;;4.60;1.92;;;;;;;19.07;43.96;101264.53;4987805;28;20052;-80
2022/07/08 09:34:54;;;;;;;5.60;1.33;;;;;;;19.21;43.66;101269.38;5002946;28;20038;-80
2022/07/08 09:37:21;;;;;;;4.50;1.50;;;;;;;19.25;43.62;101276.13;4983910;28;20053;-81
2022/07/08 09:39:48;;;;;;;10.07;5.10;;;;;;;19.32;43.83;101273.66;5025743;28;20412;-81
2022/07/08 09:42:15;;;;;;;5.63;1.45;;;;;;;19.28;44.01;101264.19;4982969;28;20049;-81
2022/07/08 09:44:42;;;;;;;5.88;2.85;;;;;;;19.28;43.19;101270.44;5022842;28;20402;-80
2022/07/08 09:47:10;;;;;;;11.63;2.00;;;;;;;19.30;43.60;101259.50;5037428;28;20699;-83
2022/07/08 09:49:40;;;;;;;9.00;3.83;;;;;;;19.34;43.77;101260.03;5014605;28;20051;-79
2022/07/08 09:52:18;;;;;;;8.57;2.33;;;;;;;19.27;42.94;101254.44;5023074;28;20051;-82
2022/07/08 09:54:45;;;;;;;6.03;2.03;;;;;;;19.39;43.45;101257.72;4991395;28;20057;-81
2022/07/08 09:57:13;;;;;;;6.45;2.30;;;;;;;19.38;43.00;101261.41;5013373;28;20045;-81
2022/07/08 09:59:40;;;;;;;9.18;2.17;;;;;;;19.29;43.14;101258.66;5012098;28;20057;-82
2022/07/08 10:02:07;;;;;;;7.55;2.20;;;;;;;19.34;43.09;101251.97;4999612;28;20492;-81
2022/07/08 10:04:33;;;;;;;7.18;2.05;;;;;;;19.36;43.61;101255.31;4993535;28;20045;-84
2022/07/08 10:07:00;;;;;;;5.57;1.48;;;;;;;19.37;42.71;101262.41;5009807;28;20132;-81
2022/07/08 10:09:53;;;;;;;5.28;1.40;;;;;;;19.29;42.65;101263.22;4996993;28;20044;-82
2022/07/08 10:12:19;;;;;;;4.80;1.47;;;;;;;19.25;42.81;101259.97;4999875;28;20042;-80
2022/07/08 10:14:46;;;;;;;7.60;1.58;;;;;;;19.35;43.27;101259.03;4996124;28;20046;-81
2022/07/08 10:17:17;;;;;;;7.65;1.77;;;;;;;19.41;43.36;101248.47;5047936;28;20041;-83
2022/07/08 10:19:45;;;;;;;8.75;2.05;;;;;;;19.49;43.35;101262.00;4998006;28;20046;-82
2022/07/08 10:22:14;;;;;;;8.00;1.48;;;;;;;19.55;43.22;101251.59;5015836;28;20500;-82
2022/07/08 10:24:41;;;;;;;5.75;1.63;;;;;;;19.62;43.17;101244.56;5013385;28;20045;-81
2022/07/08 10:27:09;;;;;;;4.28;1.40;;;;;;;19.65;42.85;101238.84;5003861;28;20050;-81
2022/07/08 10:29:39;;;;;;;4.82;1.80;;;;;;;19.76;42.90;101249.34;5027637;28;20057;-83
2022/07/08 10:32:27;;;;;;;7.03;2.08;;;;;;;19.53;41.50;101249.88;5012771;28;20042;-81
2022/07/08 10:35:11;;;;;;;8.30;1.83;;;;;;;19.58;41.44;101245.88;4980520;28;20404;-84
2022/07/08 10:37:47;;;;;;;8.23;1.98;;;;;;;19.65;42.65;101253.16;5007534;28;20100;-82
2022/07/08 10:40:47;;;;;;;7.57;2.40;;;;;;;19.53;42.95;101257.13;5001711;28;20048;-83
2022/07/08 10:43:19;;;;;;;4.35;1.50;;;;;;;19.57;42.63;101245.03;4992302;28;20052;-81
2022/07/08 10:46:12;;;;;;;4.93;1.77;;;;;;;19.56;42.83;101246.00;4981091;28;20053;-82
2022/07/08 10:48:39;;;;;;;8.75;1.73;;;;;;;19.75;42.78;101242.28;4965344;28;20504;-81
2022/07/08 10:51:07;;;;;;;5.15;1.45;;;;;;;19.91;42.57;101247.75;5025288;28;20429;-81
2022/07/08 10:53:58;;;;;;;3.15;1.40;;;;;;;19.88;42.90;101248.06;4984852;28;21108;-84
2022/07/08 10:56:49;;;;;;;6.07;1.83;;;;;;;19.81;42.81;101246.19;5007528;28;20737;-83
2022/07/08 10:59:19;;;;;;;6.20;1.73;;;;;;;19.87;42.37;101235.59;4971271;28;20589;-84
2022/07/08 11:01:56;;;;;;;4.53;1.60;;;;;;;19.80;43.10;101236.41;5019862;28;20052;-80
2022/07/08 11:04:33;;;;;;;6.05;1.55;;;;;;;19.79;42.27;101237.41;5004056;28;20058;-80
2022/07/08 11:07:14;;;;;;;4.88;1.50;;;;;;;19.79;41.68;101235.53;4996259;28;20533;-81
2022/07/08 11:09:43;;;;;;;3.80;1.40;;;;;;;19.92;42.30;101243.19;4969337;28;20038;-84
2022/07/08 11:12:14;;;;;;;4.70;1.70;;;;;;;19.85;42.34;101240.31;5015043;28;20061;-84
2022/07/08 11:14:48;;;;;;;5.70;1.50;;;;;;;19.84;42.58;101240.47;5032245;28;20510;-83
2022/07/08 11:17:26;;;;;;;6.05;1.60;;;;;;;19.87;42.70;101235.59;4996958;28;20050;-84
2022/07/08 11:19:54;;;;;;;3.45;1.45;;;;;;;19.99;42.75;101230.75;4950095;28;20049;-84
2022/07/08 11:22:22;;;;;;;6.68;1.65;;;;;;;20.08;42.34;101224.38;5021169;28;20157;-82
2022/07/08 11:24:55;;;;;;;5.32;1.52;;;;;;;20.17;42.71;101225.25;5000806;28;20053;-84
2022/07/08 11:27:27;;;;;;;4.82;1.25;;;;;;;20.25;42.86;101219.03;4976012;28;20052;-82
2022/07/08 11:30:00;;;;;;;5.18;1.55;;;;;;;20.24;41.55;101210.09;4983902;28;20504;-82
2022/07/08 11:32:27;;;;;;;3.85;1.27;;;;;;;20.25;42.05;101219.91;4989059;28;20041;-81
2022/07/08 11:34:55;;;;;;;5.00;1.60;;;;;;;20.28;42.27;101211.47;4986041;28;20091;-83